Time;durP1;ratioP1;P1;durP2;ratioP2;P2;SDS_P1;SDS_P2;PMS_P1;PMS_P2;Temp;Humidity;BMP_temperature;BMP_pressure;BME280_temperature;BME280_humidity;BME280_pressure;Samples;Min_cycle;Max_cycle;Signal;HPM_P1;HPM_P2
2023/05/14 16:26:30;;;;;;;11.30;7.85;;;;;;;20.85;70.69;98708.88;5282522;27;20370;-57
2023/05/14 16:29:21;;;;;;;16.90;7.40;;;;;;;21.40;69.19;98713.72;5257343;28;20055;-55
2023/05/14 16:32:11;;;;;;;16.08;5.40;;;;;;;21.69;65.77;98696.03;5240457;28;20190;-58
2023/05/14 16:35:02;;;;;;;9.63;4.30;;;;;;;21.91;63.74;98699.09;5252328;28;20041;-58
2023/05/14 16:37:53;;;;;;;10.23;4.10;;;;;;;22.01;62.48;98702.09;5262412;28;20492;-57
2023/05/14 16:40:44;;;;;;;7.88;3.88;;;;;;;22.12;61.73;98707.78;5237223;28;20051;-57
2023/05/14 16:43:34;;;;;;;10.98;4.45;;;;;;;22.15;60.79;98697.44;5238781;28;20106;-57
2023/05/14 16:46:24;;;;;;;11.02;4.38;;;;;;;22.24;60.12;98698.75;5240088;28;20079;-57
2023/05/14 16:49:15;;;;;;;11.07;4.10;;;;;;;22.24;59.59;98692.53;5223348;28;20051;-58
2023/05/14 16:52:05;;;;;;;7.97;3.83;;;;;;;22.33;59.19;98698.47;5229921;28;20541;-56
2023/05/14 16:54:56;;;;;;;9.65;3.85;;;;;;;22.35;58.97;98699.88;5239245;28;20132;-58
2023/05/14 16:57:46;;;;;;;12.63;3.63;;;;;;;22.37;58.57;98705.88;5237858;28;20059;-56
2023/05/14 17:00:36;;;;;;;7.22;3.47;;;;;;;22.41;58.31;98698.13;5239118;28;20411;-57
2023/05/14 17:03:26;;;;;;;9.80;4.05;;;;;;;22.39;58.27;98694.84;5236135;28;20518;-57
2023/05/14 17:06:16;;;;;;;6.93;4.10;;;;;;;22.43;57.74;98699.56;5239102;28;20311;-59
2023/05/14 17:09:06;;;;;;;9.95;3.28;;;;;;;22.35;57.86;98696.34;5237688;28;20416;-59
2023/05/14 17:11:56;;;;;;;8.07;3.22;;;;;;;22.46;57.57;98707.22;5239278;28;20150;-59
2023/05/14 17:14:46;;;;;;;10.15;4.05;;;;;;;22.44;57.58;98698.50;5235678;28;20055;-57
2023/05/14 17:17:37;;;;;;;8.43;3.85;;;;;;;22.47;57.18;98706.16;5239197;28;20041;-57
2023/05/14 17:20:27;;;;;;;8.13;3.58;;;;;;;22.48;57.03;98699.72;5237797;28;20052;-58
2023/05/14 17:23:18;;;;;;;9.85;3.50;;;;;;;22.50;57.00;98697.59;5237927;28;20059;-57
2023/05/14 17:26:10;;;;;;;6.25;3.72;;;;;;;22.50;56.91;98704.88;5236920;28;20064;-55
2023/05/14 17:29:01;;;;;;;6.90;3.63;;;;;;;22.52;56.79;98700.91;5239721;28;20118;-58
2023/05/14 17:31:51;;;;;;;8.50;3.63;;;;;;;22.52;56.71;98698.19;5233413;28;20049;-59
2023/05/14 17:34:41;;;;;;;8.70;3.05;;;;;;;22.58;60.10;98690.22;5242613;28;20060;-59
2023/05/14 17:37:31;;;;;;;7.03;3.33;;;;;;;22.63;58.96;98696.59;5225573;28;20546;-59
2023/05/14 17:40:22;;;;;;;6.80;3.47;;;;;;;22.65;58.38;98704.47;5224455;28;20083;-59
2023/05/14 17:43:12;;;;;;;4.88;3.00;;;;;;;22.64;57.92;98709.03;5223454;28;20126;-59
2023/05/14 17:46:04;;;;;;;5.97;3.03;;;;;;;22.62;57.80;98710.34;5224679;28;20056;-57
2023/05/14 17:48:53;;;;;;;6.70;3.25;;;;;;;22.70;57.07;98710.00;5225413;28;20045;-59
2023/05/14 17:51:43;;;;;;;6.57;3.38;;;;;;;22.69;57.08;98708.38;5225117;28;20049;-55
2023/05/14 17:54:33;;;;;;;10.63;3.55;;;;;;;22.67;57.17;98710.47;5221606;28;20487;-59
2023/05/14 17:57:24;;;;;;;8.77;2.75;;;;;;;22.69;56.90;98713.78;5225091;28;20710;-60
2023/05/14 18:00:15;;;;;;;5.22;3.13;;;;;;;22.67;56.95;98711.28;5224793;28;20422;-58
2023/05/14 18:03:06;;;;;;;8.23;3.60;;;;;;;22.66;57.13;98700.72;5220907;28;20072;-59
2023/05/14 18:05:57;;;;;;;8.98;3.58;;;;;;;22.69;57.00;98697.56;5224013;28;20560;-60
2023/05/14 18:08:47;;;;;;;8.73;3.42;;;;;;;22.64;57.26;98700.94;5222884;28;20057;-59
2023/05/14 18:11:37;;;;;;;7.35;3.13;;;;;;;22.69;56.65;98703.78;5224240;28;20049;-59
2023/05/14 18:14:27;;;;;;;8.05;3.65;;;;;;;22.74;56.40;98703.91;5213093;28;20427;-59
2023/05/14 18:17:17;;;;;;;6.15;2.90;;;;;;;22.72;56.65;98710.63;5209582;28;20055;-55
2023/05/14 18:20:08;;;;;;;7.45;3.40;;;;;;;23.10;55.67;98715.69;5214516;28;20052;-57
2023/05/14 18:22:58;;;;;;;6.60;3.47;;;;;;;23.27;54.72;98723.13;5211260;28;20052;-55
2023/05/14 18:25:49;;;;;;;6.53;3.30;;;;;;;23.43;53.78;98720.56;5212416;28;20052;-53
2023/05/14 18:28:39;;;;;;;6.88;3.13;;;;;;;23.29;54.14;98715.63;5218035;28;20056;-53
2023/05/14 18:31:29;;;;;;;8.25;3.17;;;;;;;23.28;54.21;98709.38;5218709;28;20118;-54
2023/05/14 18:34:19;;;;;;;5.47;3.08;;;;;;;23.13;55.05;98714.41;5217614;28;20136;-57
2023/05/14 18:37:10;;;;;;;5.72;3.22;;;;;;;23.24;55.08;98723.59;5217687;28;20132;-55
2023/05/14 18:40:01;;;;;;;6.82;3.05;;;;;;;23.19;55.32;98722.41;5214083;28;20056;-58
2023/05/14 18:42:51;;;;;;;8.77;3.28;;;;;;;23.17;55.00;98726.41;5214129;28;20423;-55
2023/05/14 18:45:41;;;;;;;6.65;3.17;;;;;;;23.18;55.05;98725.38;5218352;28;20134;-57
2023/05/14 18:48:31;;;;;;;6.90;3.00;;;;;;;23.18;54.93;98722.66;5214573;28;20048;-58
2023/05/14 18:51:21;;;;;;;6.68;3.13;;;;;;;23.12;54.88;98715.47;5221829;28;20506;-56
2023/05/14 18:54:11;;;;;;;4.43;2.72;;;;;;;23.15;54.86;98723.13;5219713;28;20813;-55
2023/05/14 18:57:02;;;;;;;6.00;2.90;;;;;;;23.11;54.82;98719.22;5217975;28;20037;-58
2023/05/14 18:59:52;;;;;;;5.10;2.88;;;;;;;23.11;54.90;98724.63;5218222;28;20051;-58
2023/05/14 19:02:42;;;;;;;6.00;3.30;;;;;;;23.11;54.97;98724.63;5213080;28;20050;-56
2023/05/14 19:05:32;;;;;;;6.30;3.00;;;;;;;23.09;54.76;98724.88;5213804;28;20053;-57
2023/05/14 19:08:22;;;;;;;4.80;2.85;;;;;;;23.09;54.78;98722.16;5214575;28;20118;-57
2023/05/14 19:11:12;;;;;;;5.47;3.05;;;;;;;23.03;54.90;98727.66;5216586;28;20557;-56
2023/05/14 19:14:03;;;;;;;4.63;3.13;;;;;;;22.93;54.72;98712.81;5230457;28;20052;-55
2023/05/14 19:16:53;;;;;;;4.55;3.17;;;;;;;23.06;54.81;98733.44;5215714;28;20071;-53
2023/05/14 19:19:43;;;;;;;3.58;2.78;;;;;;;23.03;54.77;98747.41;5214722;28;20049;-57
2023/05/14 19:22:33;;;;;;;5.60;3.00;;;;;;;22.96;54.97;98735.88;5215779;28;20060;-55
2023/05/14 19:25:23;;;;;;;8.05;3.55;;;;;;;23.04;54.89;98740.94;5216815;28;20056;-55
2023/05/14 19:28:14;;;;;;;4.97;3.28;;;;;;;23.01;54.75;98746.81;5216339;28;20086;-59
2023/05/14 19:31:04;;;;;;;8.18;2.88;;;;;;;23.01;54.76;98757.63;5218088;28;20507;-58
2023/05/14 19:33:55;;;;;;;4.68;2.90;;;;;;;23.03;54.60;98760.94;5217502;28;20045;-56
2023/05/14 19:36:45;;;;;;;5.95;3.03;;;;;;;23.04;54.61;98759.88;5221114;28;20109;-59
2023/05/14 19:39:35;;;;;;;4.07;2.65;;;;;;;23.03;54.47;98755.53;5221660;28;20056;-59
2023/05/14 19:42:25;;;;;;;5.90;2.78;;;;;;;23.06;54.42;98765.06;5217893;28;20051;-58
2023/05/14 19:45:15;;;;;;;6.90;2.88;;;;;;;23.05;54.36;98760.72;5218310;28;20537;-58
2023/05/14 19:48:05;;;;;;;4.03;2.90;;;;;;;23.05;54.51;98763.44;5220806;28;20063;-56
2023/05/14 19:50:56;;;;;;;6.70;2.83;;;;;;;23.03;54.30;98766.34;5208411;28;20049;-58
2023/05/14 19:53:46;;;;;;;5.30;3.33;;;;;;;23.02;54.24;98753.88;5212941;28;20648;-58
2023/05/14 19:56:40;;;;;;;4.70;2.80;;;;;;;22.97;54.48;98749.16;5219433;28;20124;-57
2023/05/14 19:59:30;;;;;;;4.85;2.90;;;;;;;23.01;54.29;98756.81;5216172;28;20060;-56
2023/05/14 20:02:20;;;;;;;5.22;2.97;;;;;;;23.03;54.24;98749.31;5215121;28;20056;-56
2023/05/14 20:05:11;;;;;;;6.88;2.88;;;;;;;22.88;54.38;98728.91;5220014;28;20049;-56
2023/05/14 20:08:05;;;;;;;6.50;2.60;;;;;;;22.98;54.27;98758.94;5216723;28;20053;-57
2023/05/14 20:10:55;;;;;;;4.07;2.40;;;;;;;22.92;54.30;98751.72;5215839;28;20323;-52
2023/05/14 20:13:45;;;;;;;4.57;3.33;;;;;;;22.97;54.33;98759.97;5212269;28;20495;-56
2023/05/14 20:16:35;;;;;;;3.35;2.60;;;;;;;22.96;54.31;98757.50;5217778;28;20075;-53
2023/05/14 20:21:34;;;;;;;6.75;3.15;;;;;;;23.00;54.17;98757.88;5263873;27;20367;-57
2023/05/14 20:24:24;;;;;;;4.93;2.97;;;;;;;22.84;54.54;98757.41;5247890;28;20045;-59
2023/05/14 20:27:14;;;;;;;5.90;2.97;;;;;;;22.84;54.56;98753.91;5239421;28;20059;-59
2023/05/14 20:30:05;;;;;;;7.97;2.85;;;;;;;22.81;54.72;98760.56;5245468;28;20048;-58
2023/05/14 20:32:56;;;;;;;5.88;2.92;;;;;;;22.84;54.52;98762.00;5247382;28;20137;-56
2023/05/14 20:35:47;;;;;;;4.93;3.10;;;;;;;22.82;54.47;98764.94;5243294;28;20079;-56
2023/05/14 20:38:37;;;;;;;4.82;2.80;;;;;;;22.84;54.39;98759.31;5252263;28;20099;-57
2023/05/14 20:41:27;;;;;;;4.03;2.85;;;;;;;22.84;54.65;98757.41;5243894;28;20520;-57
2023/05/14 20:44:17;;;;;;;3.88;2.55;;;;;;;22.83;54.46;98749.56;5243192;28;20052;-53
2023/05/14 20:47:09;;;;;;;3.17;2.38;;;;;;;22.84;54.51;98753.91;5246673;28;20056;-57
2023/05/14 20:50:00;;;;;;;5.30;2.67;;;;;;;22.82;54.55;98747.91;5248604;28;20121;-55
2023/05/14 20:52:49;;;;;;;6.18;2.80;;;;;;;22.83;54.34;98746.84;5239836;28;20147;-55
2023/05/14 20:55:40;;;;;;;3.90;2.88;;;;;;;22.84;54.29;98751.19;5246101;28;20056;-55
2023/05/14 20:58:29;;;;;;;3.55;2.50;;;;;;;22.81;54.33;98740.84;5245714;28;20136;-58
2023/05/14 21:01:20;;;;;;;4.57;2.58;;;;;;;22.85;54.43;98736.66;5243037;28;20052;-56
2023/05/14 21:04:10;;;;;;;4.70;3.17;;;;;;;22.85;54.11;98742.88;5240969;28;20418;-56
2023/05/14 21:07:01;;;;;;;4.53;2.85;;;;;;;22.83;54.33;98742.25;5238528;28;20079;-55
2023/05/14 21:09:51;;;;;;;4.72;2.75;;;;;;;22.84;54.20;98748.50;5237319;28;20213;-56
2023/05/14 21:12:42;;;;;;;6.20;2.80;;;;;;;22.79;54.55;98748.38;5238258;28;20115;-56
2023/05/14 21:15:34;;;;;;;4.80;2.50;;;;;;;22.77;54.39;98745.88;5238283;28;20059;-55
2023/05/14 21:18:25;;;;;;;5.03;2.83;;;;;;;22.70;54.25;98731.63;5240258;28;20548;-54
2023/05/14 21:21:15;;;;;;;6.30;2.50;;;;;;;22.75;54.48;98737.19;5239999;28;20293;-57
2023/05/14 21:24:06;;;;;;;4.15;2.63;;;;;;;22.73;54.27;98740.09;5239391;28;20078;-59
2023/05/14 21:26:56;;;;;;;3.60;2.72;;;;;;;22.77;54.35;98755.88;5219697;28;20522;-56
2023/05/14 21:29:46;;;;;;;3.17;2.70;;;;;;;22.72;54.17;98738.47;5218298;28;20052;-56
2023/05/14 21:32:36;;;;;;;4.43;2.95;;;;;;;22.74;54.29;98746.34;5206900;28;20107;-56
2023/05/14 21:35:26;;;;;;;3.63;2.50;;;;;;;22.74;54.36;98736.34;5214442;28;20053;-56
2023/05/14 21:38:17;;;;;;;4.07;2.70;;;;;;;22.69;54.28;98725.41;5226331;28;20055;-56
2023/05/14 21:41:07;;;;;;;5.13;2.78;;;;;;;22.75;54.14;98738.00;5226098;28;20045;-57
2023/05/14 21:43:57;;;;;;;5.30;2.75;;;;;;;22.71;54.28;98742.22;5225490;28;20103;-53
2023/05/14 21:46:48;;;;;;;3.80;2.72;;;;;;;22.73;54.30;98734.69;5225725;28;20762;-56
2023/05/14 21:49:38;;;;;;;5.50;3.08;;;;;;;22.69;54.30;98728.09;5226083;28;20055;-54
2023/05/14 21:52:28;;;;;;;4.05;2.60;;;;;;;22.74;54.02;98730.13;5225265;28;20524;-57
2023/05/14 21:55:18;;;;;;;3.63;2.58;;;;;;;22.67;54.07;98726.69;5226108;28;20079;-53
2023/05/14 21:58:08;;;;;;;5.63;2.55;;;;;;;22.73;54.12;98723.06;5225917;28;20588;-52
2023/05/14 22:00:58;;;;;;;3.20;2.65;;;;;;;22.67;54.18;98714.00;5225689;28;20048;-56
2023/05/14 22:03:48;;;;;;;3.50;2.60;;;;;;;22.70;54.12;98732.44;5238095;28;20662;-53
2023/05/14 22:06:39;;;;;;;8.55;2.85;;;;;;;22.69;53.99;98727.28;5225583;28;20511;-56
2023/05/14 22:09:29;;;;;;;3.53;2.40;;;;;;;22.67;54.15;98732.91;5225538;28;20056;-55
2023/05/14 22:12:19;;;;;;;3.70;2.42;;;;;;;22.69;54.14;98732.69;5224891;28;20115;-57
2023/05/14 22:15:10;;;;;;;4.60;2.70;;;;;;;22.63;54.19;98728.19;5225479;28;20191;-57
2023/05/14 22:18:01;;;;;;;4.50;2.90;;;;;;;22.69;54.11;98732.69;5225534;28;20056;-55
2023/05/14 22:20:52;;;;;;;4.25;2.65;;;;;;;22.62;54.12;98715.75;5225194;28;20060;-55
2023/05/14 22:23:42;;;;;;;2.72;2.38;;;;;;;22.69;53.99;98727.28;5237335;28;20559;-53
2023/05/14 22:26:32;;;;;;;4.28;2.58;;;;;;;22.65;54.09;98715.25;5225892;28;20511;-55
2023/05/14 22:29:22;;;;;;;4.32;2.55;;;;;;;22.63;54.04;98715.50;5225276;28;20442;-56
2023/05/14 22:32:12;;;;;;;4.28;2.85;;;;;;;22.68;53.93;98714.81;5225043;28;20469;-57
2023/05/14 22:35:02;;;;;;;4.22;2.70;;;;;;;22.66;54.12;98706.13;5224766;28;20053;-57
2023/05/14 22:37:52;;;;;;;3.60;2.45;;;;;;;22.66;54.02;98706.13;5225312;28;20092;-57
2023/05/14 22:40:42;;;;;;;2.67;2.47;;;;;;;22.67;54.03;98705.06;5225069;28;20056;-57
2023/05/14 22:43:32;;;;;;;3.22;2.47;;;;;;;22.66;54.02;98708.81;5223283;28;20083;-58
2023/05/14 22:46:22;;;;;;;2.90;2.38;;;;;;;22.68;54.03;98709.41;5224985;28;20430;-57
2023/05/14 22:49:12;;;;;;;2.38;2.13;;;;;;;22.65;53.94;98710.72;5225086;28;20057;-56
2023/05/14 22:52:02;;;;;;;3.35;2.53;;;;;;;22.62;53.92;98702.25;5224744;28;20052;-58
2023/05/14 22:54:53;;;;;;;3.10;2.45;;;;;;;22.63;53.89;98702.00;5223975;28;20624;-56
2023/05/14 22:57:43;;;;;;;4.97;2.50;;;;;;;22.65;53.95;98701.75;5224765;28;20103;-57
2023/05/14 23:00:33;;;;;;;2.72;2.13;;;;;;;22.63;54.05;98695.78;5223745;28;20691;-58
2023/05/14 23:03:23;;;;;;;3.45;2.65;;;;;;;22.62;53.77;98704.94;5220809;28;20053;-57
2023/05/14 23:06:13;;;;;;;2.97;2.40;;;;;;;22.61;53.97;98701.38;5224356;28;20569;-58
2023/05/14 23:09:04;;;;;;;3.08;2.60;;;;;;;22.62;53.90;98707.66;5224612;28;20059;-55
2023/05/14 23:11:54;;;;;;;3.55;2.60;;;;;;;22.58;53.95;98693.75;5223903;28;20118;-58
2023/05/14 23:14:44;;;;;;;3.55;2.28;;;;;;;22.62;53.79;98699.53;5223855;28;20051;-56
2023/05/14 23:17:35;;;;;;;4.60;2.30;;;;;;;22.62;53.79;98696.84;5224155;28;20059;-57
2023/05/14 23:20:25;;;;;;;2.80;2.50;;;;;;;22.61;53.74;98695.97;5224315;28;20045;-57
2023/05/14 23:23:15;;;;;;;3.35;2.38;;;;;;;22.61;53.61;98703.28;5224015;28;20045;-58
2023/05/14 23:26:05;;;;;;;3.10;2.40;;;;;;;22.58;53.62;98698.31;5224487;28;20056;-57
2023/05/14 23:28:55;;;;;;;3.15;2.30;;;;;;;22.56;53.81;98689.63;5224431;28;20049;-58
2023/05/14 23:31:45;;;;;;;5.63;2.60;;;;;;;22.61;53.77;98698.69;5224320;28;20056;-57
2023/05/14 23:34:36;;;;;;;3.55;2.92;;;;;;;22.61;53.68;98695.16;5223258;28;20052;-58
2023/05/14 23:37:26;;;;;;;2.50;1.92;;;;;;;22.57;53.66;98681.28;5224070;28;20056;-57
2023/05/14 23:40:16;;;;;;;2.88;2.20;;;;;;;22.60;53.50;98688.13;5223663;28;20076;-59
2023/05/14 23:43:06;;;;;;;4.38;2.63;;;;;;;22.61;53.62;98687.88;5223292;28;20053;-57
2023/05/14 23:45:57;;;;;;;4.18;2.40;;;;;;;22.58;53.67;98682.09;5223596;28;20075;-58
2023/05/14 23:48:47;;;;;;;3.50;2.40;;;;;;;22.60;53.73;98686.25;5223680;28;20053;-58
2023/05/14 23:51:37;;;;;;;3.00;2.10;;;;;;;22.58;53.58;98677.53;5223504;28;20118;-59
2023/05/14 23:54:27;;;;;;;2.80;2.17;;;;;;;22.56;53.50;98676.94;5222764;28;20052;-58
2023/05/14 23:57:17;;;;;;;3.03;2.10;;;;;;;22.57;53.67;98670.47;5223677;28;20049;-57
